Time;durP1;ratioP1;P1;durP2;ratioP2;P2;SDS_P1;SDS_P2;PMS_P1;PMS_P2;Temp;Humidity;BMP_temperature;BMP_pressure;BME280_temperature;BME280_humidity;BME280_pressure;Samples;Min_cycle;Max_cycle;Signal;HPM_P1;HPM_P2
2023/06/01 00:01:38;;;;;;;9.20;5.32;;;;;;;16.35;60.45;96357.34;5045999;28;20510;-72
2023/06/01 00:04:05;;;;;;;10.10;5.07;;;;;;;16.33;60.28;96354.91;5047145;28;20110;-72
2023/06/01 00:06:33;;;;;;;7.78;4.93;;;;;;;16.25;60.06;96353.16;5046579;28;20045;-72
2023/06/01 00:09:00;;;;;;;9.15;5.60;;;;;;;16.11;60.49;96350.84;5045505;28;20155;-72
2023/06/01 00:11:27;;;;;;;8.77;5.20;;;;;;;16.02;60.78;96357.66;5044174;28;20049;-72
2023/06/01 00:13:53;;;;;;;9.27;5.40;;;;;;;15.95;61.31;96360.22;5039629;28;20049;-72
2023/06/01 00:16:22;;;;;;;9.57;5.07;;;;;;;15.91;61.81;96355.44;5046241;28;20045;-72
2023/06/01 00:18:51;;;;;;;8.43;5.93;;;;;;;15.88;62.44;96350.66;5046877;28;20053;-72
2023/06/01 00:21:17;;;;;;;10.15;5.18;;;;;;;15.86;62.32;96357.63;5047399;28;20037;-72
2023/06/01 00:23:45;;;;;;;9.35;5.22;;;;;;;15.85;62.25;96351.34;5046672;28;20048;-72
2023/06/01 00:26:13;;;;;;;9.55;5.60;;;;;;;15.84;62.06;96344.28;5048602;28;20128;-72
2023/06/01 00:28:39;;;;;;;8.63;5.10;;;;;;;15.82;61.42;96349.31;5050614;28;20566;-72
2023/06/01 00:31:06;;;;;;;7.93;5.15;;;;;;;15.82;61.45;96354.03;5045352;28;20086;-72
2023/06/01 00:33:32;;;;;;;9.25;5.38;;;;;;;15.79;61.50;96350.00;5049955;28;20052;-72
2023/06/01 00:35:59;;;;;;;7.68;4.95;;;;;;;15.77;61.51;96349.59;5050086;28;20060;-72
2023/06/01 00:38:25;;;;;;;8.52;5.00;;;;;;;15.73;61.52;96343.19;5046435;28;20052;-71
2023/06/01 00:40:53;;;;;;;8.93;5.32;;;;;;;15.70;62.13;96343.88;5050136;28;20037;-72
2023/06/01 00:43:20;;;;;;;9.52;4.90;;;;;;;15.68;62.16;96340.69;5049700;28;20238;-72
2023/06/01 00:45:46;;;;;;;7.82;5.03;;;;;;;15.64;63.03;96337.84;5049745;28;20061;-71
2023/06/01 00:48:15;;;;;;;7.70;5.10;;;;;;;15.64;62.51;96339.81;5048606;28;20052;-72
2023/06/01 00:50:42;;;;;;;8.48;4.90;;;;;;;15.64;62.77;96334.31;5049530;28;20044;-72
2023/06/01 00:53:15;;;;;;;8.68;4.50;;;;;;;15.67;63.24;96339.09;5049393;28;20052;-72
2023/06/01 00:55:42;;;;;;;9.73;5.05;;;;;;;15.67;63.13;96325.38;5049812;28;20044;-72
2023/06/01 00:58:10;;;;;;;8.68;5.25;;;;;;;15.68;63.73;96324.22;5049440;28;20051;-72
2023/06/01 01:00:38;;;;;;;8.93;5.40;;;;;;;15.69;63.18;96323.06;5048911;28;20048;-71
2023/06/01 01:03:07;;;;;;;9.45;5.68;;;;;;;15.70;63.08;96321.91;5049388;28;20087;-73
2023/06/01 01:05:34;;;;;;;7.55;5.28;;;;;;;15.68;62.29;96335.22;5047657;28;20044;-72
2023/06/01 01:08:07;;;;;;;9.90;5.07;;;;;;;15.64;62.10;96328.81;5050290;28;20044;-72
2023/06/01 01:10:39;;;;;;;7.40;4.97;;;;;;;15.60;62.31;96327.88;5049821;28;20052;-72
2023/06/01 01:13:12;;;;;;;8.43;4.70;;;;;;;15.56;62.22;96341.53;5049046;28;20070;-73
2023/06/01 01:15:47;;;;;;;7.32;4.68;;;;;;;15.53;62.18;96344.19;5049948;28;20040;-72
2023/06/01 01:18:19;;;;;;;9.23;5.40;;;;;;;15.49;62.21;96343.28;5048643;28;20037;-72
2023/06/01 01:20:52;;;;;;;8.90;4.90;;;;;;;15.47;62.59;96342.84;5049250;28;20055;-72
2023/06/01 01:23:45;;;;;;;11.25;5.45;;;;;;;15.44;63.02;96341.56;5047608;28;20040;-72
2023/06/01 01:26:43;;;;;;;7.43;5.03;;;;;;;15.43;62.87;96339.19;5048213;28;20473;-72
2023/06/01 01:29:14;;;;;;;9.93;5.35;;;;;;;15.41;63.76;96342.28;5031887;28;20056;-72
2023/06/01 01:31:41;;;;;;;7.85;4.80;;;;;;;15.39;63.36;96345.34;5049345;28;20085;-72
2023/06/01 01:34:09;;;;;;;7.72;4.68;;;;;;;15.38;63.39;96349.25;5048189;28;20041;-72
2023/06/01 01:36:36;;;;;;;9.13;5.32;;;;;;;15.38;63.97;96343.75;5048347;28;20091;-72
2023/06/01 01:39:03;;;;;;;8.80;4.90;;;;;;;15.34;64.18;96342.88;5049422;28;20140;-72
2023/06/01 01:41:30;;;;;;;8.43;5.05;;;;;;;15.33;64.30;96344.00;5048995;28;20044;-72
2023/06/01 01:43:58;;;;;;;8.25;5.25;;;;;;;15.28;64.06;96343.47;5048908;28;20052;-72
2023/06/01 01:46:28;;;;;;;8.70;5.07;;;;;;;15.23;63.65;96347.25;5048532;28;20127;-72
2023/06/01 01:49:02;;;;;;;9.00;5.53;;;;;;;15.17;64.11;96339.63;5048374;28;20060;-72
2023/06/01 01:51:37;;;;;;;8.07;5.35;;;;;;;15.07;64.58;96343.66;5049210;28;20095;-72
2023/06/01 01:54:06;;;;;;;10.75;5.25;;;;;;;15.01;65.32;96342.28;5051008;28;20041;-73
2023/06/01 01:56:35;;;;;;;9.45;5.88;;;;;;;14.96;64.98;96337.06;5048645;28;20069;-72
2023/06/01 01:59:02;;;;;;;9.20;6.05;;;;;;;14.93;65.29;96343.22;5049474;28;20045;-72
2023/06/01 02:01:31;;;;;;;8.05;5.82;;;;;;;14.93;65.33;96343.22;5046987;28;20047;-72
2023/06/01 02:04:02;;;;;;;9.63;6.05;;;;;;;14.91;65.31;96345.50;5047955;28;20037;-72
2023/06/01 02:06:28;;;;;;;10.88;5.65;;;;;;;14.85;65.12;96340.28;5047201;28;20041;-72
2023/06/01 02:08:55;;;;;;;9.43;5.72;;;;;;;14.84;65.08;96343.38;5048213;28;20041;-72
2023/06/01 02:11:22;;;;;;;9.73;5.63;;;;;;;14.83;65.10;96333.56;5047531;28;20064;-73
2023/06/01 02:13:49;;;;;;;10.07;5.38;;;;;;;14.82;65.65;96337.41;5048194;28;20056;-72
2023/06/01 02:16:16;;;;;;;9.15;5.18;;;;;;;14.79;65.72;96330.69;5043758;28;20068;-72
2023/06/01 02:18:45;;;;;;;8.68;5.68;;;;;;;14.76;65.55;96328.63;5048645;28;20541;-72
2023/06/01 02:21:13;;;;;;;9.07;5.85;;;;;;;14.73;65.67;96328.53;5048129;28;20444;-72
2023/06/01 02:23:40;;;;;;;13.05;5.97;;;;;;;14.67;65.89;96330.72;5047936;28;20049;-72
2023/06/01 02:26:07;;;;;;;9.00;5.20;;;;;;;14.63;65.90;96327.06;5049055;28;20041;-72
2023/06/01 02:28:33;;;;;;;9.45;5.13;;;;;;;14.58;65.63;96327.31;5048676;28;20045;-72
2023/06/01 02:31:00;;;;;;;9.43;5.40;;;;;;;14.52;66.11;96320.47;5051760;28;20057;-72
2023/06/01 02:33:26;;;;;;;9.40;5.45;;;;;;;14.49;66.37;96329.34;5050336;28;20045;-71
2023/06/01 02:35:54;;;;;;;8.52;5.43;;;;;;;14.45;66.24;96325.66;5050281;28;20052;-71
2023/06/01 02:38:20;;;;;;;8.70;5.72;;;;;;;14.44;66.95;96324.06;5049538;28;20403;-72
2023/06/01 02:40:47;;;;;;;9.75;5.72;;;;;;;14.44;67.31;96321.34;5050334;28;20049;-72
2023/06/01 02:43:13;;;;;;;9.70;6.07;;;;;;;14.44;67.31;96321.34;5048910;28;20045;-71
2023/06/01 02:45:40;;;;;;;10.00;5.85;;;;;;;14.44;67.32;96318.59;5049958;28;20057;-72
2023/06/01 02:48:06;;;;;;;11.50;5.80;;;;;;;14.44;67.31;96318.59;5049516;28;20037;-72
2023/06/01 02:50:33;;;;;;;8.57;5.97;;;;;;;14.45;67.63;96322.94;5049469;28;20053;-71
2023/06/01 02:53:01;;;;;;;10.10;5.90;;;;;;;14.45;67.42;96317.44;5049557;28;20052;-72
2023/06/01 02:55:27;;;;;;;10.13;6.00;;;;;;;14.46;67.15;96319.03;5046460;28;20049;-72
2023/06/01 02:57:54;;;;;;;11.25;5.65;;;;;;;14.45;68.00;96311.97;5046845;28;20523;-72
2023/06/01 03:00:21;;;;;;;8.30;5.25;;;;;;;14.44;68.05;96316.66;5048569;28;20045;-72
2023/06/01 03:02:48;;;;;;;10.60;6.20;;;;;;;14.41;67.39;96311.06;5048497;28;20053;-72
2023/06/01 03:05:16;;;;;;;10.93;6.15;;;;;;;14.42;66.73;96321.69;5044605;28;20131;-71
2023/06/01 03:07:44;;;;;;;10.45;5.93;;;;;;;14.41;67.33;96316.53;5049375;28;20076;-72
2023/06/01 03:10:12;;;;;;;7.80;5.38;;;;;;;14.39;66.81;96318.81;5047448;28;20043;-72
2023/06/01 03:12:40;;;;;;;9.50;5.68;;;;;;;14.38;67.26;96317.22;5047323;28;20120;-71
2023/06/01 03:15:07;;;;;;;9.48;6.03;;;;;;;14.34;67.67;96317.91;5048442;28;20400;-72
2023/06/01 03:17:33;;;;;;;8.00;5.80;;;;;;;14.31;67.46;96318.59;5048499;28;20820;-72
2023/06/01 03:20:00;;;;;;;9.68;6.15;;;;;;;14.28;67.39;96313.00;5047172;28;20044;-72
2023/06/01 03:22:26;;;;;;;10.93;6.07;;;;;;;14.28;68.17;96313.81;5049851;28;20037;-72
2023/06/01 03:24:54;;;;;;;8.10;5.82;;;;;;;14.27;67.91;96316.91;5051405;28;20056;-71
2023/06/01 03:27:22;;;;;;;13.18;6.78;;;;;;;14.25;67.47;96325.47;5050825;28;20044;-71
2023/06/01 03:29:48;;;;;;;9.65;5.95;;;;;;;14.24;67.55;96323.84;5051507;28;20056;-72
2023/06/01 03:32:15;;;;;;;10.77;6.00;;;;;;;14.25;67.23;96321.91;5051647;28;20044;-73
2023/06/01 03:34:42;;;;;;;8.50;5.82;;;;;;;14.24;68.18;96321.09;5051690;28;20051;-72
2023/06/01 03:37:09;;;;;;;8.43;5.18;;;;;;;14.24;68.57;96329.31;5051324;28;20569;-73
2023/06/01 03:39:35;;;;;;;11.00;6.20;;;;;;;14.18;68.33;96330.69;5051308;28;20047;-72
2023/06/01 03:42:02;;;;;;;9.60;5.75;;;;;;;14.14;68.46;96328.97;5051906;28;20124;-74
2023/06/01 03:44:30;;;;;;;8.75;5.90;;;;;;;14.04;68.62;96330.22;5051385;28;20052;-73
2023/06/01 03:46:56;;;;;;;7.65;5.60;;;;;;;13.97;69.20;96336.25;5052715;28;20520;-72
2023/06/01 03:49:23;;;;;;;10.25;5.90;;;;;;;13.95;69.64;96337.75;5051312;28;20045;-72
2023/06/01 03:51:50;;;;;;;9.50;6.07;;;;;;;13.93;69.57;96334.53;5049013;28;20560;-72
2023/06/01 03:54:16;;;;;;;9.70;6.00;;;;;;;13.92;70.15;96335.69;5050617;28;20052;-72
2023/06/01 03:56:43;;;;;;;11.15;6.13;;;;;;;13.91;69.87;96337.63;5053268;28;20515;-74
2023/06/01 03:59:10;;;;;;;8.07;6.28;;;;;;;13.89;69.75;96341.84;5051607;28;20049;-72
2023/06/01 04:01:39;;;;;;;8.70;6.07;;;;;;;13.88;70.11;96345.72;5055932;28;20052;-72
2023/06/01 04:04:08;;;;;;;8.95;5.80;;;;;;;13.88;70.31;96348.44;5054507;28;20392;-72
2023/06/01 04:06:35;;;;;;;8.50;5.47;;;;;;;13.87;70.51;96344.13;5050531;28;20041;-72
2023/06/01 04:09:06;;;;;;;9.18;6.03;;;;;;;13.87;70.29;96341.38;5049956;28;20072;-73
2023/06/01 04:11:33;;;;;;;10.68;6.05;;;;;;;13.88;70.30;96343.75;5048551;28;20045;-71
2023/06/01 04:13:59;;;;;;;9.95;6.15;;;;;;;13.92;70.37;96332.94;5050923;28;20048;-71
2023/06/01 04:16:26;;;;;;;11.77;6.85;;;;;;;13.89;70.23;96342.66;5048784;28;20045;-71
2023/06/01 04:18:54;;;;;;;12.70;7.03;;;;;;;13.90;69.88;96335.25;5049835;28;20048;-72
2023/06/01 04:21:21;;;;;;;8.65;5.95;;;;;;;13.94;69.71;96347.09;5050896;28;20131;-72
2023/06/01 04:23:48;;;;;;;10.80;6.13;;;;;;;13.97;69.62;96340.94;5051689;28;20447;-72
2023/06/01 04:26:15;;;;;;;9.05;5.75;;;;;;;14.01;70.42;96347.34;5047420;28;20052;-72
2023/06/01 04:28:44;;;;;;;10.30;6.03;;;;;;;14.02;70.26;96337.97;5050315;28;20052;-72
2023/06/01 04:31:16;;;;;;;9.38;5.90;;;;;;;14.04;70.92;96346.63;5046986;28;20098;-72
2023/06/01 04:33:44;;;;;;;9.88;6.47;;;;;;;14.04;71.05;96349.38;5050595;28;20053;-72
2023/06/01 04:36:12;;;;;;;8.25;6.07;;;;;;;14.05;70.45;96354.53;5048495;28;20044;-72
2023/06/01 04:38:41;;;;;;;9.07;5.85;;;;;;;14.09;70.26;96354.63;5049690;28;20048;-74
2023/06/01 04:41:09;;;;;;;9.35;5.75;;;;;;;14.10;70.42;96346.09;5039687;28;20055;-74
2023/06/01 04:43:36;;;;;;;10.15;5.82;;;;;;;14.15;70.00;96347.81;5049577;28;20048;-73
2023/06/01 04:46:04;;;;;;;13.23;6.72;;;;;;;14.19;70.30;96351.44;5046784;28;20715;-74
2023/06/01 04:48:31;;;;;;;10.85;5.75;;;;;;;14.21;70.16;96354.66;5048036;28;20552;-72
2023/06/01 04:50:58;;;;;;;11.07;6.38;;;;;;;14.26;71.17;96348.97;5048725;28;20070;-73
2023/06/01 04:53:27;;;;;;;12.57;7.07;;;;;;;14.30;71.96;96349.88;5049112;28;20045;-73
2023/06/01 04:55:53;;;;;;;10.20;5.93;;;;;;;14.32;71.74;96344.84;5049364;28;20073;-73
2023/06/01 04:58:20;;;;;;;11.23;5.85;;;;;;;14.37;70.85;96343.84;5048798;28;20044;-73
2023/06/01 05:00:47;;;;;;;10.80;6.22;;;;;;;14.43;70.35;96347.13;5049456;28;20057;-73
2023/06/01 05:03:14;;;;;;;9.20;5.25;;;;;;;14.50;70.42;96352.88;5048694;28;20084;-73
2023/06/01 05:05:40;;;;;;;9.07;5.43;;;;;;;14.54;70.26;96349.09;5049076;28;20053;-72
2023/06/01 05:08:07;;;;;;;8.88;6.13;;;;;;;14.59;70.61;96350.81;5048887;28;20044;-73
2023/06/01 05:10:35;;;;;;;7.80;5.22;;;;;;;14.68;70.06;96346.00;5048840;28;20052;-73
2023/06/01 05:13:01;;;;;;;10.90;5.43;;;;;;;14.73;71.18;96354.00;5034843;28;20064;-74
2023/06/01 05:15:29;;;;;;;10.90;5.43;;;;;;;14.80;70.10;96358.91;5046904;28;20041;-73
2023/06/01 05:17:56;;;;;;;10.27;5.25;;;;;;;14.85;69.89;96358.66;5043087;28;20045;-73
2023/06/01 05:20:22;;;;;;;8.73;4.95;;;;;;;14.94;68.37;96359.34;5050378;28;20049;-73
2023/06/01 05:22:48;;;;;;;8.85;4.82;;;;;;;15.02;68.15;96357.59;5051312;28;20052;-73
2023/06/01 05:25:15;;;;;;;8.38;4.30;;;;;;;15.07;68.70;96360.09;5046442;28;20488;-73
2023/06/01 05:27:43;;;;;;;9.98;5.57;;;;;;;15.13;68.61;96356.75;5050199;28;20056;-73
2023/06/01 05:30:10;;;;;;;9.25;4.68;;;;;;;15.20;67.57;96344.44;5051247;28;20045;-73
2023/06/01 05:32:37;;;;;;;9.38;4.30;;;;;;;15.27;67.14;96353.66;5052081;28;20098;-73
2023/06/01 05:35:04;;;;;;;6.18;4.20;;;;;;;15.34;66.12;96359.31;5050934;28;20068;-73
2023/06/01 05:37:30;;;;;;;7.68;4.07;;;;;;;15.44;67.20;96346.25;5052314;28;20045;-73
2023/06/01 05:39:57;;;;;;;10.73;4.60;;;;;;;15.45;67.09;96347.84;5052869;28;20041;-73
2023/06/01 05:42:23;;;;;;;9.55;4.25;;;;;;;15.55;66.70;96350.91;5049345;28;20412;-72
2023/06/01 05:44:51;;;;;;;9.30;4.32;;;;;;;15.62;65.45;96353.06;5047502;28;20045;-73
2023/06/01 05:47:18;;;;;;;9.38;4.20;;;;;;;15.66;62.62;96356.75;5047069;28;20052;-73
2023/06/01 05:49:45;;;;;;;10.90;5.00;;;;;;;15.56;60.66;96357.22;5047737;28;20048;-72
2023/06/01 05:52:13;;;;;;;9.35;4.40;;;;;;;15.64;59.55;96354.31;5048190;28;20053;-73
2023/06/01 05:54:40;;;;;;;10.85;4.82;;;;;;;15.69;58.60;96353.28;5048530;28;20060;-73
2023/06/01 05:57:07;;;;;;;7.82;4.70;;;;;;;15.83;60.46;96353.66;5047359;28;20052;-74
2023/06/01 05:59:33;;;;;;;8.63;4.15;;;;;;;16.03;60.05;96353.78;5047842;28;20065;-73
2023/06/01 06:02:01;;;;;;;6.55;3.85;;;;;;;16.19;60.79;96351.84;5048318;28;20567;-73
2023/06/01 06:04:28;;;;;;;6.13;3.60;;;;;;;16.32;61.43;96347.84;5048180;28;20044;-73
2023/06/01 06:06:54;;;;;;;7.10;4.13;;;;;;;16.46;61.91;96352.09;5048121;28;20519;-73
2023/06/01 06:09:21;;;;;;;8.52;4.25;;;;;;;16.52;62.73;96356.97;5048478;28;20396;-73
2023/06/01 06:11:47;;;;;;;11.60;4.53;;;;;;;16.42;58.75;96352.00;5048765;28;20056;-73
2023/06/01 06:14:14;;;;;;;8.40;4.35;;;;;;;16.53;58.91;96358.56;5048552;28;20049;-73
2023/06/01 06:16:40;;;;;;;9.23;4.47;;;;;;;16.59;58.80;96362.63;5050362;28;20060;-73
2023/06/01 06:19:08;;;;;;;7.75;3.90;;;;;;;16.75;58.73;96362.63;5049962;28;20103;-73
2023/06/01 06:21:35;;;;;;;10.00;4.88;;;;;;;16.70;57.73;96363.69;5041906;28;20457;-73
2023/06/01 06:24:03;;;;;;;8.63;4.90;;;;;;;16.68;59.26;96359.69;5048543;28;20053;-76
2023/06/01 06:26:30;;;;;;;9.00;4.32;;;;;;;16.91;58.91;96363.41;5054205;28;20049;-73
2023/06/01 06:28:56;;;;;;;10.25;5.30;;;;;;;16.94;57.66;96367.38;5052584;28;20049;-73
2023/06/01 06:31:23;;;;;;;9.18;4.70;;;;;;;17.07;58.43;96355.13;5049117;28;20045;-74
2023/06/01 06:33:51;;;;;;;9.02;4.70;;;;;;;17.08;57.64;96361.41;5050917;28;21093;-73
2023/06/01 06:36:19;;;;;;;11.57;3.97;;;;;;;17.29;57.96;96359.13;5048624;28;20490;-73
2023/06/01 06:38:46;;;;;;;12.15;4.95;;;;;;;17.22;56.89;96361.69;5047620;28;20412;-72
2023/06/01 06:41:12;;;;;;;11.57;5.07;;;;;;;17.35;57.58;96365.13;5028868;28;20045;-73
2023/06/01 06:43:39;;;;;;;10.73;5.00;;;;;;;17.31;58.20;96361.50;5047298;28;20052;-73
2023/06/01 06:46:05;;;;;;;7.32;4.35;;;;;;;17.45;57.52;96357.09;5046767;28;20048;-74
2023/06/01 06:48:32;;;;;;;8.23;4.50;;;;;;;17.48;57.49;96358.31;5047370;28;20051;-73
2023/06/01 06:50:58;;;;;;;9.02;4.65;;;;;;;17.65;57.81;96360.66;5046997;28;20041;-74
2023/06/01 06:53:26;;;;;;;7.50;4.65;;;;;;;17.78;57.06;96357.75;5046557;28;20060;-73
2023/06/01 06:55:53;;;;;;;7.15;4.55;;;;;;;17.85;57.08;96360.63;5046934;28;20052;-73
2023/06/01 06:58:19;;;;;;;7.80;4.38;;;;;;;18.04;58.29;96362.56;5046830;28;20508;-73
2023/06/01 07:00:46;;;;;;;7.75;4.75;;;;;;;18.10;58.28;96350.88;5047168;28;20045;-73
2023/06/01 07:03:12;;;;;;;7.90;4.55;;;;;;;18.11;56.30;96351.66;5046494;28;20041;-73
2023/06/01 07:05:39;;;;;;;9.82;4.93;;;;;;;18.17;56.04;96352.97;5046245;28;20048;-73
2023/06/01 07:08:06;;;;;;;9.48;5.00;;;;;;;18.12;55.59;96353.28;5046330;28;20156;-72
2023/06/01 07:10:34;;;;;;;9.15;5.07;;;;;;;18.18;55.83;96351.81;5047957;28;20052;-73
2023/06/01 07:13:00;;;;;;;9.77;5.05;;;;;;;18.15;54.46;96347.00;5049670;28;20041;-73
2023/06/01 07:15:27;;;;;;;10.20;4.85;;;;;;;18.24;54.42;96355.84;5049337;28;20047;-73
2023/06/01 07:17:53;;;;;;;8.57;5.10;;;;;;;18.35;55.01;96354.06;5047586;28;20055;-73
2023/06/01 07:20:20;;;;;;;8.43;5.03;;;;;;;18.49;55.02;96357.06;5046664;28;20052;-73
2023/06/01 07:22:47;;;;;;;7.72;4.30;;;;;;;18.52;53.77;96355.50;5045335;28;20492;-72
2023/06/01 07:25:14;;;;;;;16.88;5.30;;;;;;;18.59;53.99;96354.84;5046434;28;20041;-73
2023/06/01 07:27:43;;;;;;;7.43;4.28;;;;;;;18.71;53.28;96357.44;5046254;28;20049;-72
2023/06/01 07:30:12;;;;;;;8.18;4.75;;;;;;;18.94;54.47;96360.13;5046570;28;20068;-73
2023/06/01 07:32:38;;;;;;;10.82;4.82;;;;;;;18.84;52.35;96367.06;5046352;28;20045;-73
2023/06/01 07:35:06;;;;;;;9.20;5.15;;;;;;;19.02;53.31;96359.88;5045824;28;20049;-74
2023/06/01 07:37:32;;;;;;;11.00;4.85;;;;;;;18.95;52.44;96351.50;5046342;28;20041;-73
2023/06/01 07:39:59;;;;;;;10.63;4.72;;;;;;;19.03;52.93;96358.69;5044123;28;20120;-73
2023/06/01 07:42:26;;;;;;;9.38;4.95;;;;;;;19.04;52.49;96352.00;5046683;28;20043;-72
2023/06/01 07:44:54;;;;;;;8.98;4.93;;;;;;;19.19;53.17;96354.97;5047533;28;20045;-73
2023/06/01 07:47:21;;;;;;;9.73;4.82;;;;;;;19.39;53.21;96356.41;5044916;28;20049;-73
2023/06/01 07:49:47;;;;;;;11.55;5.18;;;;;;;19.48;52.80;96345.88;5044244;28;20049;-73
2023/06/01 07:52:14;;;;;;;12.27;4.93;;;;;;;19.65;52.57;96349.25;5043579;28;20064;-73
2023/06/01 07:54:40;;;;;;;9.05;4.72;;;;;;;19.87;54.50;96356.63;5047052;28;20300;-73
2023/06/01 07:57:07;;;;;;;8.18;5.07;;;;;;;20.05;53.38;96352.09;5044887;28;20048;-74
2023/06/01 07:59:34;;;;;;;8.98;3.75;;;;;;;20.24;53.49;96353.81;5047136;28;20047;-73
2023/06/01 08:02:02;;;;;;;9.88;4.80;;;;;;;20.34;51.22;96347.59;5046263;28;20045;-73
2023/06/01 08:04:33;;;;;;;9.18;4.95;;;;;;;20.43;50.98;96350.06;5046172;28;20561;-73
2023/06/01 08:07:02;;;;;;;8.57;4.38;;;;;;;20.61;50.58;96344.69;5046573;28;20087;-73
2023/06/01 08:09:29;;;;;;;13.35;5.20;;;;;;;20.69;52.39;96346.34;5045957;28;20178;-73
2023/06/01 08:11:56;;;;;;;9.13;4.57;;;;;;;20.82;50.37;96349.59;5046013;28;20059;-73
2023/06/01 08:14:23;;;;;;;10.60;6.70;;;;;;;21.06;49.90;96354.50;5045792;28;20060;-73
2023/06/01 08:16:51;;;;;;;11.73;4.95;;;;;;;21.17;49.57;96353.78;5045104;28;20052;-73
2023/06/01 08:19:19;;;;;;;8.77;4.68;;;;;;;21.35;49.16;96354.69;5045755;28;20045;-73
2023/06/01 08:21:45;;;;;;;12.07;5.10;;;;;;;21.64;49.11;96352.84;5045972;28;20807;-74
2023/06/01 08:24:12;;;;;;;9.25;4.38;;;;;;;21.83;48.92;96346.97;5045871;28;20045;-73
2023/06/01 08:26:39;;;;;;;8.45;4.32;;;;;;;22.02;47.29;96354.13;5045820;28;20072;-74
2023/06/01 08:29:06;;;;;;;7.97;4.45;;;;;;;22.10;47.43;96357.75;5044828;28;20054;-73
2023/06/01 08:31:32;;;;;;;6.07;4.25;;;;;;;22.22;46.94;96351.84;5045743;28;20132;-73
2023/06/01 08:33:59;;;;;;;7.85;4.53;;;;;;;22.35;47.88;96355.03;5045834;28;20060;-72
2023/06/01 08:36:26;;;;;;;8.63;4.43;;;;;;;22.57;47.99;96351.09;5045489;28;20516;-73
2023/06/01 08:38:56;;;;;;;7.80;4.38;;;;;;;22.78;48.86;96344.72;5045987;28;20061;-73
2023/06/01 08:41:26;;;;;;;7.13;4.70;;;;;;;22.94;47.02;96341.56;5045970;28;20048;-73
2023/06/01 08:43:55;;;;;;;7.95;4.70;;;;;;;23.10;47.44;96344.72;5045992;28;20595;-74
2023/06/01 08:46:22;;;;;;;8.00;4.60;;;;;;;23.28;47.47;96346.66;5046719;28;20053;-73
2023/06/01 08:48:53;;;;;;;6.28;4.20;;;;;;;23.43;46.74;96339.84;5049252;28;20412;-73
2023/06/01 08:51:20;;;;;;;9.20;4.25;;;;;;;23.26;44.20;96343.50;5049339;28;20446;-72
2023/06/01 08:53:50;;;;;;;7.03;4.35;;;;;;;23.32;45.65;96345.44;5052405;28;20462;-73
2023/06/01 08:56:17;;;;;;;8.52;4.78;;;;;;;23.33;47.26;96335.13;5051177;28;20045;-74
2023/06/01 08:58:44;;;;;;;10.23;4.60;;;;;;;23.41;44.48;96343.03;5052350;28;20041;-73
2023/06/01 09:01:18;;;;;;;10.68;4.47;;;;;;;23.66;46.28;96342.97;5043267;28;20045;-72
2023/06/01 09:03:44;;;;;;;8.32;4.25;;;;;;;23.55;43.64;96338.66;5056812;28;20522;-72
2023/06/01 09:06:11;;;;;;;7.75;4.25;;;;;;;23.78;45.64;96344.50;5057284;28;20412;-73
2023/06/01 09:08:38;;;;;;;12.80;4.80;;;;;;;23.51;43.77;96341.44;5056436;28;20152;-73
2023/06/01 09:11:06;;;;;;;8.55;4.32;;;;;;;23.65;43.18;96335.06;5048377;28;20040;-73
2023/06/01 09:13:33;;;;;;;10.77;4.75;;;;;;;23.71;45.95;96332.66;5056091;28;20140;-73
2023/06/01 09:16:00;;;;;;;9.60;4.60;;;;;;;23.85;43.98;96338.13;5049498;28;20040;-73
2023/06/01 09:18:26;;;;;;;5.90;4.05;;;;;;;24.05;44.66;96336.41;5048669;28;20044;-73
2023/06/01 09:20:54;;;;;;;9.57;4.57;;;;;;;23.89;41.83;96333.34;5048835;28;20053;-73
2023/06/01 09:23:27;;;;;;;6.55;4.07;;;;;;;23.95;40.79;96331.72;5048584;28;20091;-72
2023/06/01 09:26:08;;;;;;;8.73;4.78;;;;;;;23.92;40.97;96336.09;5048121;28;20045;-73
2023/06/01 09:28:57;;;;;;;10.27;4.43;;;;;;;23.46;42.24;96332.72;5048890;28;20412;-73
2023/06/01 09:31:38;;;;;;;11.10;4.97;;;;;;;23.55;43.10;96331.09;5048189;28;20060;-73
2023/06/01 09:34:05;;;;;;;11.05;5.03;;;;;;;23.85;42.61;96327.00;5048192;28;20041;-74
2023/06/01 09:36:32;;;;;;;7.65;3.85;;;;;;;24.01;40.15;96332.88;5048603;28;20040;-73
2023/06/01 09:39:02;;;;;;;8.80;4.13;;;;;;;24.10;38.75;96333.22;5048603;28;20055;-73
2023/06/01 09:41:44;;;;;;;8.50;4.35;;;;;;;24.03;37.82;96330.47;5048678;28;20103;-73
2023/06/01 09:44:11;;;;;;;8.27;4.18;;;;;;;24.29;37.87;96333.91;5037428;28;20072;-75
2023/06/01 09:46:47;;;;;;;8.43;4.25;;;;;;;24.52;40.58;96331.34;5044534;28;20040;-75
2023/06/01 09:49:19;;;;;;;6.28;4.07;;;;;;;24.57;40.80;96333.69;5047843;28;20049;-74
2023/06/01 09:51:46;;;;;;;10.45;4.50;;;;;;;24.72;40.92;96328.81;5048531;28;20053;-74
2023/06/01 09:54:22;;;;;;;9.88;4.38;;;;;;;24.67;40.43;96327.25;5048280;28;20527;-75
2023/06/01 09:56:50;;;;;;;8.27;4.18;;;;;;;24.51;37.90;96323.41;5048998;28;20051;-75
2023/06/01 09:59:17;;;;;;;6.63;4.10;;;;;;;24.64;37.06;96328.09;5049103;28;20068;-75
2023/06/01 10:01:48;;;;;;;8.93;4.50;;;;;;;24.70;39.79;96318.09;5055052;28;20056;-75
2023/06/01 10:04:17;;;;;;;8.88;4.13;;;;;;;24.79;38.74;96312.03;5054892;28;20060;-74
2023/06/01 10:06:44;;;;;;;8.15;4.47;;;;;;;24.54;37.59;96317.84;5056082;28;20053;-73
2023/06/01 10:09:15;;;;;;;9.23;4.90;;;;;;;24.60;36.95;96324.53;5056890;28;20523;-74
2023/06/01 10:11:42;;;;;;;7.50;4.53;;;;;;;24.69;37.59;96324.88;5055939;28;20041;-75
2023/06/01 10:14:10;;;;;;;13.02;4.85;;;;;;;24.60;37.48;96318.97;5049200;28;20064;-73
2023/06/01 10:16:37;;;;;;;9.50;4.38;;;;;;;24.78;36.90;96315.22;5048637;28;20053;-73
2023/06/01 10:19:05;;;;;;;9.32;4.70;;;;;;;24.80;36.85;96313.63;5047503;28;20049;-74
2023/06/01 10:21:33;;;;;;;7.97;4.05;;;;;;;24.92;37.59;96310.31;5048256;28;20060;-73
2023/06/01 10:23:59;;;;;;;9.13;4.57;;;;;;;24.59;35.88;96306.25;5048235;28;20057;-73
2023/06/01 10:26:28;;;;;;;7.47;4.63;;;;;;;24.38;38.74;96298.88;5047545;28;20055;-73
2023/06/01 10:28:56;;;;;;;13.23;5.63;;;;;;;24.71;39.98;96294.59;5047943;28;20052;-72
2023/06/01 10:31:41;;;;;;;6.47;4.10;;;;;;;24.67;38.47;96298.63;5047846;28;20060;-73
2023/06/01 10:34:09;;;;;;;10.93;4.78;;;;;;;24.58;38.71;96296.31;5048122;28;20063;-73
2023/06/01 10:37:21;;;;;;;11.07;4.50;;;;;;;24.63;39.35;96293.06;5047611;28;20049;-72
2023/06/01 10:39:48;;;;;;;8.70;4.38;;;;;;;24.58;42.78;96287.16;5000203;28;20052;-73
2023/06/01 10:42:38;;;;;;;7.10;4.80;;;;;;;24.57;41.08;96300.28;5047441;28;20041;-74
2023/06/01 10:45:06;;;;;;;9.20;4.40;;;;;;;24.44;39.09;96294.44;5047499;28;20114;-74
2023/06/01 10:47:48;;;;;;;7.93;4.28;;;;;;;24.72;41.85;96290.63;5047498;28;20052;-73
2023/06/01 10:50:20;;;;;;;6.95;3.95;;;;;;;24.76;39.16;96284.22;5046759;28;20037;-74
2023/06/01 10:52:47;;;;;;;6.97;4.45;;;;;;;24.86;40.01;96288.91;5047466;28;20053;-72
2023/06/01 10:55:25;;;;;;;8.57;4.47;;;;;;;25.03;39.02;96287.13;5046942;28;20129;-73
2023/06/01 10:57:52;;;;;;;5.88;4.03;;;;;;;25.15;40.79;96283.84;5047106;28;20052;-73
2023/06/01 11:00:22;;;;;;;6.10;4.22;;;;;;;25.20;38.42;96283.38;5046702;28;20045;-73
2023/06/01 11:02:53;;;;;;;9.57;4.38;;;;;;;25.14;38.68;96285.06;5046996;28;20496;-74
2023/06/01 11:05:51;;;;;;;7.57;4.90;;;;;;;24.86;37.80;96288.91;5046208;28;20048;-73
2023/06/01 11:08:52;;;;;;;6.93;4.35;;;;;;;24.84;38.38;96274.59;4983612;28;20059;-74
2023/06/01 11:11:21;;;;;;;7.63;4.93;;;;;;;24.81;39.59;96275.44;5046463;28;20049;-73
2023/06/01 11:14:10;;;;;;;9.20;4.20;;;;;;;25.01;40.09;96276.41;5046822;28;20068;-73
2023/06/01 11:16:37;;;;;;;10.55;4.40;;;;;;;25.01;41.00;96273.63;5046254;28;20049;-72
2023/06/01 11:19:06;;;;;;;9.50;4.63;;;;;;;25.10;40.80;96271.16;5046129;28;20049;-73
2023/06/01 11:21:36;;;;;;;12.10;4.57;;;;;;;25.18;38.01;96267.09;5046575;28;20047;-72
2023/06/01 11:24:07;;;;;;;9.65;4.38;;;;;;;25.26;38.58;96267.78;5028162;28;20053;-73
2023/06/01 11:26:35;;;;;;;7.75;4.63;;;;;;;24.88;39.48;96265.00;5047979;28;20048;-73
2023/06/01 11:29:08;;;;;;;9.23;4.65;;;;;;;24.93;38.49;96260.97;5031310;28;20068;-74
2023/06/01 11:31:37;;;;;;;11.77;4.72;;;;;;;24.95;38.79;96273.28;5047971;28;20048;-72
2023/06/01 11:34:05;;;;;;;8.63;4.40;;;;;;;24.68;38.44;96256.44;5047224;28;20061;-74
2023/06/01 11:36:37;;;;;;;5.78;3.90;;;;;;;24.94;39.71;96257.75;5048196;28;20385;-73
2023/06/01 11:39:07;;;;;;;9.53;4.83;;;;;;;24.98;39.93;96252.16;5046147;28;20044;-73